sensor_id;sensor_type;location;lat;lon;timestamp;pressure;altitude;pressure_sealevel;temperature;humidity
48622;BME280;34421;48.944;9.460;2023-01-29T00:00:28;99640.94;;;3.71;57.52
48622;BME280;34421;48.944;9.460;2023-01-29T00:02:54;99639.28;;;3.70;56.67
48622;BME280;34421;48.944;9.460;2023-01-29T00:05:19;99640.00;;;3.72;56.16
48622;BME280;34421;48.944;9.460;2023-01-29T00:07:44;99636.50;;;3.72;56.35
48622;BME280;34421;48.944;9.460;2023-01-29T00:10:10;99637.19;;;3.74;56.14
48622;BME280;34421;48.944;9.460;2023-01-29T00:12:35;99637.19;;;3.74;56.83
48622;BME280;34421;48.944;9.460;2023-01-29T00:15:00;99636.50;;;3.72;57.17
48622;BME280;34421;48.944;9.460;2023-01-29T00:17:25;99639.41;;;3.69;56.28
48622;BME280;34421;48.944;9.460;2023-01-29T00:19:52;99643.19;;;3.66;57.92
48622;BME280;34421;48.944;9.460;2023-01-29T00:22:17;99648.16;;;3.69;58.20
48622;BME280;34421;48.944;9.460;2023-01-29T00:24:42;99641.91;;;3.70;57.32
48622;BME280;34421;48.944;9.460;2023-01-29T00:27:08;99636.94;;;3.67;57.45
48622;BME280;34421;48.944;9.460;2023-01-29T00:29:33;99630.28;;;3.63;57.10
48622;BME280;34421;48.944;9.460;2023-01-29T00:31:58;99631.50;;;3.59;56.63
48622;BME280;34421;48.944;9.460;2023-01-29T00:34:23;99636.63;;;3.51;58.06
48622;BME280;34421;48.944;9.460;2023-01-29T00:36:49;99633.44;;;3.47;57.32
48622;BME280;34421;48.944;9.460;2023-01-29T00:39:14;99630.13;;;3.55;58.45
48622;BME280;34421;48.944;9.460;2023-01-29T00:41:39;99632.22;;;3.61;57.65
48622;BME280;34421;48.944;9.460;2023-01-29T00:44:23;99630.84;;;3.67;56.56
48622;BME280;34421;48.944;9.460;2023-01-29T00:47:07;99633.19;;;3.70;56.67
48622;BME280;34421;48.944;9.460;2023-01-29T00:49:52;99628.03;;;3.68;57.50
48622;BME280;34421;48.944;9.460;2023-01-29T00:52:17;99630.00;;;3.66;57.15
48622;BME280;34421;48.944;9.460;2023-01-29T00:54:48;99623.06;;;3.65;56.90
48622;BME280;34421;48.944;9.460;2023-01-29T00:57:14;99638.84;;;3.65;56.89
48622;BME280;34421;48.944;9.460;2023-01-29T00:59:39;99632.75;;;3.64;57.88
48622;BME280;34421;48.944;9.460;2023-01-29T01:02:04;99634.28;;;3.67;58.55
48622;BME280;34421;48.944;9.460;2023-01-29T01:04:48;99636.66;;;3.70;57.52
48622;BME280;34421;48.944;9.460;2023-01-29T01:07:13;99626.13;;;3.70;57.96
48622;BME280;34421;48.944;9.460;2023-01-29T01:09:38;99633.59;;;3.65;57.98
48622;BME280;34421;48.944;9.460;2023-01-29T01:12:22;99625.00;;;3.63;58.42
48622;BME280;34421;48.944;9.460;2023-01-29T01:14:47;99627.66;;;3.63;57.72
48622;BME280;34421;48.944;9.460;2023-01-29T01:17:13;99623.47;;;3.60;57.85
48622;BME280;34421;48.944;9.460;2023-01-29T01:19:39;99617.50;;;3.58;58.83
48622;BME280;34421;48.944;9.460;2023-01-29T01:22:04;99618.63;;;3.56;59.00
48622;BME280;34421;48.944;9.460;2023-01-29T01:24:29;99619.31;;;3.48;59.13
48622;BME280;34421;48.944;9.460;2023-01-29T01:26:55;99614.84;;;3.39;58.51
48622;BME280;34421;48.944;9.460;2023-01-29T01:29:20;99621.78;;;3.30;59.85
48622;BME280;34421;48.944;9.460;2023-01-29T01:31:45;99621.50;;;3.33;59.83
48622;BME280;34421;48.944;9.460;2023-01-29T01:34:10;99623.31;;;3.42;59.71
48622;BME280;34421;48.944;9.460;2023-01-29T01:36:35;99621.53;;;3.53;58.23
48622;BME280;34421;48.944;9.460;2023-01-29T01:39:01;99624.97;;;3.53;59.24
48622;BME280;34421;48.944;9.460;2023-01-29T01:41:26;99624.16;;;3.53;58.45
48622;BME280;34421;48.944;9.460;2023-01-29T01:46:17;99610.88;;;3.54;58.66
48622;BME280;34421;48.944;9.460;2023-01-29T01:48:42;99618.19;;;3.51;57.77
48622;BME280;34421;48.944;9.460;2023-01-29T01:51:08;99615.56;;;3.51;58.09
48622;BME280;34421;48.944;9.460;2023-01-29T01:53:38;99614.31;;;3.45;57.94
48622;BME280;34421;48.944;9.460;2023-01-29T01:56:06;99618.72;;;3.45;58.50
48622;BME280;34421;48.944;9.460;2023-01-29T02:00:57;99613.63;;;3.33;58.98
48622;BME280;34421;48.944;9.460;2023-01-29T02:03:22;99610.44;;;3.39;59.17
48622;BME280;34421;48.944;9.460;2023-01-29T02:06:06;99618.44;;;3.38;57.85
48622;BME280;34421;48.944;9.460;2023-01-29T02:08:56;99620.81;;;3.31;59.04
48622;BME280;34421;48.944;9.460;2023-01-29T02:11:41;99622.47;;;3.32;58.99
48622;BME280;34421;48.944;9.460;2023-01-29T02:14:06;99618.34;;;3.39;58.96
48622;BME280;34421;48.944;9.460;2023-01-29T02:16:33;99624.00;;;3.45;58.65
48622;BME280;34421;48.944;9.460;2023-01-29T02:18:58;99619.44;;;3.47;59.26
48622;BME280;34421;48.944;9.460;2023-01-29T02:21:34;99624.31;;;3.51;57.87
48622;BME280;34421;48.944;9.460;2023-01-29T02:24:30;99627.63;;;3.53;58.61
48622;BME280;34421;48.944;9.460;2023-01-29T02:32:22;99623.72;;;3.48;58.70
48622;BME280;34421;48.944;9.460;2023-01-29T02:35:08;99613.78;;;3.51;57.79
48622;BME280;34421;48.944;9.460;2023-01-29T02:40:19;99618.88;;;3.53;57.99
48622;BME280;34421;48.944;9.460;2023-01-29T02:42:52;99624.16;;;3.53;57.91
48622;BME280;34421;48.944;9.460;2023-01-29T02:45:42;99622.50;;;3.52;59.06
48622;BME280;34421;48.944;9.460;2023-01-29T02:48:04;99625.41;;;3.49;58.16
48622;BME280;34421;48.944;9.460;2023-01-29T02:50:37;99620.16;;;3.49;58.37
48622;BME280;34421;48.944;9.460;2023-01-29T02:53:10;99609.47;;;3.50;57.94
48622;BME280;34421;48.944;9.460;2023-01-29T02:55:39;99612.78;;;3.42;58.91
48622;BME280;34421;48.944;9.460;2023-01-29T02:58:08;99609.72;;;3.37;58.64
48622;BME280;34421;48.944;9.460;2023-01-29T03:00:37;99607.09;;;3.37;59.21
48622;BME280;34421;48.944;9.460;2023-01-29T03:03:15;99605.28;;;3.38;58.27
48622;BME280;34421;48.944;9.460;2023-01-29T03:08:10;99621.63;;;3.41;58.30
48622;BME280;34421;48.944;9.460;2023-01-29T03:10:41;99621.09;;;3.38;58.93
48622;BME280;34421;48.944;9.460;2023-01-29T03:13:20;99616.09;;;3.35;58.27
48622;BME280;34421;48.944;9.460;2023-01-29T03:15:47;99608.91;;;3.37;58.43
48622;BME280;34421;48.944;9.460;2023-01-29T03:18:18;99622.19;;;3.35;59.47
48622;BME280;34421;48.944;9.460;2023-01-29T03:20:47;99618.59;;;3.36;58.86
48622;BME280;34421;48.944;9.460;2023-01-29T03:23:20;99613.34;;;3.36;59.83
48622;BME280;34421;48.944;9.460;2023-01-29T03:26:06;99613.34;;;3.36;60.26
48622;BME280;34421;48.944;9.460;2023-01-29T03:28:51;99617.19;;;3.42;59.97
48622;BME280;34421;48.944;9.460;2023-01-29T03:31:35;99618.06;;;3.42;58.99
48622;BME280;34421;48.944;9.460;2023-01-29T03:34:23;99606.28;;;3.47;58.63
48622;BME280;34421;48.944;9.460;2023-01-29T03:37:00;99607.94;;;3.48;59.47
48622;BME280;34421;48.944;9.460;2023-01-29T03:39:26;99608.63;;;3.50;59.25
48622;BME280;34421;48.944;9.460;2023-01-29T03:52:01;99615.81;;;3.48;59.14
48622;BME280;34421;48.944;9.460;2023-01-29T03:54:47;99613.63;;;3.53;59.32
48622;BME280;34421;48.944;9.460;2023-01-29T03:57:27;99611.16;;;3.51;58.63
48622;BME280;34421;48.944;9.460;2023-01-29T04:02:22;99618.06;;;3.52;57.85
48622;BME280;34421;48.944;9.460;2023-01-29T04:04:52;99618.88;;;3.53;57.91
48622;BME280;34421;48.944;9.460;2023-01-29T04:07:19;99611.16;;;3.51;58.86
48622;BME280;34421;48.944;9.460;2023-01-29T04:10:08;99614.59;;;3.52;59.18
48622;BME280;34421;48.944;9.460;2023-01-29T04:12:40;99612.09;;;3.50;59.22
48622;BME280;34421;48.944;9.460;2023-01-29T04:15:08;99619.72;;;3.43;59.49
48622;BME280;34421;48.944;9.460;2023-01-29T04:17:36;99618.06;;;3.42;59.94
48622;BME280;34421;48.944;9.460;2023-01-29T04:20:02;99621.38;;;3.45;58.85
48622;BME280;34421;48.944;9.460;2023-01-29T04:22:35;99626.34;;;3.28;59.26
48622;BME280;34421;48.944;9.460;2023-01-29T04:25:01;99626.63;;;3.25;58.79
48622;BME280;34421;48.944;9.460;2023-01-29T04:40:59;99624.09;;;3.14;59.48
48622;BME280;34421;48.944;9.460;2023-01-29T04:48:41;99625.91;;;3.23;59.77
48622;BME280;34421;48.944;9.460;2023-01-29T04:56:07;99633.63;;;3.15;59.59
48622;BME280;34421;48.944;9.460;2023-01-29T04:58:46;99638.59;;;3.08;59.43
48622;BME280;34421;48.944;9.460;2023-01-29T05:01:14;99637.78;;;3.08;59.89
48622;BME280;34421;48.944;9.460;2023-01-29T05:03:41;99632.63;;;3.06;59.83
48622;BME280;34421;48.944;9.460;2023-01-29T05:06:08;99633.63;;;3.05;60.29
48622;BME280;34421;48.944;9.460;2023-01-29T05:08:35;99628.50;;;3.04;60.22
48622;BME280;34421;48.944;9.460;2023-01-29T05:11:01;99631.97;;;3.04;60.45
48622;BME280;34421;48.944;9.460;2023-01-29T05:13:27;99630.00;;;3.06;60.30
48622;BME280;34421;48.944;9.460;2023-01-29T05:18:28;99623.78;;;3.07;60.63
48622;BME280;34421;48.944;9.460;2023-01-29T05:20:54;99618.53;;;3.07;60.21
48622;BME280;34421;48.944;9.460;2023-01-29T05:23:21;99633.91;;;3.12;59.89
48622;BME280;34421;48.944;9.460;2023-01-29T05:25:47;99634.88;;;3.11;60.47
48622;BME280;34421;48.944;9.460;2023-01-29T05:28:13;99636.81;;;3.09;59.63
48622;BME280;34421;48.944;9.460;2023-01-29T05:30:42;99637.22;;;3.04;59.74
48622;BME280;34421;48.944;9.460;2023-01-29T05:33:27;99632.63;;;2.96;59.74
48622;BME280;34421;48.944;9.460;2023-01-29T05:35:53;99625.97;;;2.92;60.26
48622;BME280;34421;48.944;9.460;2023-01-29T05:38:19;99622.09;;;2.96;59.96
48622;BME280;34421;48.944;9.460;2023-01-29T05:40:45;99620.69;;;2.92;60.10
48622;BME280;34421;48.944;9.460;2023-01-29T05:45:41;99609.28;;;2.82;60.12
48622;BME280;34421;48.944;9.460;2023-01-29T05:48:07;99599.91;;;2.89;59.87
48622;BME280;34421;48.944;9.460;2023-01-29T05:50:32;99583.34;;;2.99;60.54
48622;BME280;34421;48.944;9.460;2023-01-29T05:52:58;99583.19;;;3.00;59.76
48622;BME280;34421;48.944;9.460;2023-01-29T05:55:23;99577.53;;;3.05;60.14
48622;BME280;34421;48.944;9.460;2023-01-29T05:57:49;99577.25;;;3.08;59.18
48622;BME280;34421;48.944;9.460;2023-01-29T06:00:14;99582.25;;;3.11;59.86
48622;BME280;34421;48.944;9.460;2023-01-29T06:02:39;99587.41;;;3.12;60.12
48622;BME280;34421;48.944;9.460;2023-01-29T06:05:05;99586.16;;;3.16;60.21
48622;BME280;34421;48.944;9.460;2023-01-29T06:07:30;99583.78;;;3.23;59.00
48622;BME280;34421;48.944;9.460;2023-01-29T06:09:55;99587.13;;;3.25;59.54
48622;BME280;34421;48.944;9.460;2023-01-29T06:12:21;99587.25;;;3.24;59.20
48622;BME280;34421;48.944;9.460;2023-01-29T06:14:46;99592.78;;;3.20;59.33
48622;BME280;34421;48.944;9.460;2023-01-29T06:17:11;99598.19;;;3.19;58.93
48622;BME280;34421;48.944;9.460;2023-01-29T06:19:36;99607.75;;;3.20;59.04
48622;BME280;34421;48.944;9.460;2023-01-29T06:22:01;99606.78;;;3.21;59.51
48622;BME280;34421;48.944;9.460;2023-01-29T06:24:27;99599.47;;;3.25;58.46
48622;BME280;34421;48.944;9.460;2023-01-29T06:26:52;99607.38;;;3.25;58.48
48622;BME280;34421;48.944;9.460;2023-01-29T06:29:17;99595.41;;;3.20;59.45
48622;BME280;34421;48.944;9.460;2023-01-29T06:31:42;99603.31;;;3.11;58.58
48622;BME280;34421;48.944;9.460;2023-01-29T06:34:08;99606.75;;;3.11;58.68
48622;BME280;34421;48.944;9.460;2023-01-29T06:36:33;99607.31;;;3.15;59.36
48622;BME280;34421;48.944;9.460;2023-01-29T06:38:58;99602.06;;;3.15;59.59
48622;BME280;34421;48.944;9.460;2023-01-29T06:41:23;99602.75;;;3.17;59.65
48622;BME280;34421;48.944;9.460;2023-01-29T06:43:49;99604.41;;;3.18;58.41
48622;BME280;34421;48.944;9.460;2023-01-29T06:46:14;99604.13;;;3.21;58.11
48622;BME280;34421;48.944;9.460;2023-01-29T06:48:40;99605.13;;;3.20;58.88
48622;BME280;34421;48.944;9.460;2023-01-29T06:51:05;99608.03;;;3.17;58.42
48622;BME280;34421;48.944;9.460;2023-01-29T06:53:34;99608.84;;;3.17;58.92
48622;BME280;34421;48.944;9.460;2023-01-29T06:56:00;99621.75;;;3.20;58.17
48622;BME280;34421;48.944;9.460;2023-01-29T06:58:25;99618.28;;;3.20;58.57
48622;BME280;34421;48.944;9.460;2023-01-29T07:00:50;99626.06;;;3.22;58.22
48622;BME280;34421;48.944;9.460;2023-01-29T07:03:15;99621.19;;;3.17;57.34
48622;BME280;34421;48.944;9.460;2023-01-29T07:05:41;99623.09;;;3.15;57.30
48622;BME280;34421;48.944;9.460;2023-01-29T07:08:06;99623.53;;;3.20;57.79
48622;BME280;34421;48.944;9.460;2023-01-29T07:10:32;99621.34;;;3.25;57.37
48622;BME280;34421;48.944;9.460;2023-01-29T07:12:58;99625.47;;;3.18;57.38
48622;BME280;34421;48.944;9.460;2023-01-29T07:15:23;99623.25;;;3.13;58.09
48622;BME280;34421;48.944;9.460;2023-01-29T07:17:58;99627.16;;;3.19;56.96
48622;BME280;34421;48.944;9.460;2023-01-29T07:20:24;99635.72;;;3.21;57.06
48622;BME280;34421;48.944;9.460;2023-01-29T07:22:50;99637.84;;;3.27;56.94
48622;BME280;34421;48.944;9.460;2023-01-29T07:25:15;99629.94;;;3.27;57.93
48622;BME280;34421;48.944;9.460;2023-01-29T07:27:40;99641.16;;;3.29;56.88
48622;BME280;34421;48.944;9.460;2023-01-29T07:30:07;99639.91;;;3.24;57.03
48622;BME280;34421;48.944;9.460;2023-01-29T07:32:32;99641.56;;;3.25;57.71
48622;BME280;34421;48.944;9.460;2023-01-29T07:34:58;99642.41;;;3.25;56.83
48622;BME280;34421;48.944;9.460;2023-01-29T07:37:23;99643.13;;;3.27;57.74
48622;BME280;34421;48.944;9.460;2023-01-29T07:39:48;99654.31;;;3.29;56.66
48622;BME280;34421;48.944;9.460;2023-01-29T07:42:13;99650.84;;;3.29;57.06
48622;BME280;34421;48.944;9.460;2023-01-29T07:44:39;99652.66;;;3.28;57.61
48622;BME280;34421;48.944;9.460;2023-01-29T07:47:04;99654.31;;;3.29;56.91
48622;BME280;34421;48.944;9.460;2023-01-29T07:49:29;99651.28;;;3.34;57.87
48622;BME280;34421;48.944;9.460;2023-01-29T07:51:54;99656.97;;;3.39;57.90
48622;BME280;34421;48.944;9.460;2023-01-29T07:54:20;99655.19;;;3.39;56.66
48622;BME280;34421;48.944;9.460;2023-01-29T07:56:45;99661.00;;;3.43;56.92
48622;BME280;34421;48.944;9.460;2023-01-29T07:59:10;99658.81;;;3.48;56.78
48622;BME280;34421;48.944;9.460;2023-01-29T08:01:35;99658.00;;;3.57;57.07
48622;BME280;34421;48.944;9.460;2023-01-29T08:04:00;99660.09;;;3.63;56.86
48622;BME280;34421;48.944;9.460;2023-01-29T08:06:26;99654.66;;;3.65;57.26
48622;BME280;34421;48.944;9.460;2023-01-29T08:08:51;99646.47;;;3.68;56.25
48622;BME280;34421;48.944;9.460;2023-01-29T08:11:17;99659.94;;;3.75;57.57
48622;BME280;34421;48.944;9.460;2023-01-29T08:13:42;99655.78;;;3.82;56.46
48622;BME280;34421;48.944;9.460;2023-01-29T08:16:08;99656.78;;;3.91;56.05
48622;BME280;34421;48.944;9.460;2023-01-29T08:18:33;99666.88;;;3.95;56.40
48622;BME280;34421;48.944;9.460;2023-01-29T08:21:00;99664.53;;;4.02;55.89
48622;BME280;34421;48.944;9.460;2023-01-29T08:23:26;99675.19;;;4.10;55.25
48622;BME280;34421;48.944;9.460;2023-01-29T08:25:51;99677.97;;;4.18;56.18
48622;BME280;34421;48.944;9.460;2023-01-29T08:28:16;99669.78;;;4.21;56.26
48622;BME280;34421;48.944;9.460;2023-01-29T08:30:41;99679.66;;;4.29;55.17
48622;BME280;34421;48.944;9.460;2023-01-29T08:33:08;99674.63;;;4.36;54.68
48622;BME280;34421;48.944;9.460;2023-01-29T08:35:33;99680.03;;;4.44;55.42
48622;BME280;34421;48.944;9.460;2023-01-29T08:37:59;99681.00;;;4.43;55.57
48622;BME280;34421;48.944;9.460;2023-01-29T08:40:25;99677.69;;;4.41;56.34
48622;BME280;34421;48.944;9.460;2023-01-29T08:42:50;99685.03;;;4.47;55.28
48622;BME280;34421;48.944;9.460;2023-01-29T08:45:15;99688.34;;;4.49;54.27
48622;BME280;34421;48.944;9.460;2023-01-29T08:47:47;99683.34;;;4.55;55.30
48622;BME280;34421;48.944;9.460;2023-01-29T08:50:13;99676.09;;;4.57;54.37
48622;BME280;34421;48.944;9.460;2023-01-29T08:52:38;99684.84;;;4.68;54.17
48622;BME280;34421;48.944;9.460;2023-01-29T08:55:04;99682.03;;;4.79;54.19
48622;BME280;34421;48.944;9.460;2023-01-29T08:57:29;99676.44;;;4.92;53.79
48622;BME280;34421;48.944;9.460;2023-01-29T08:59:54;99683.31;;;5.12;52.34
48622;BME280;34421;48.944;9.460;2023-01-29T09:02:20;99683.06;;;5.33;52.02
48622;BME280;34421;48.944;9.460;2023-01-29T09:04:45;99696.03;;;5.54;50.96
48622;BME280;34421;48.944;9.460;2023-01-29T09:07:10;99701.41;;;5.62;51.23
48622;BME280;34421;48.944;9.460;2023-01-29T09:09:35;99702.22;;;5.63;50.92
48622;BME280;34421;48.944;9.460;2023-01-29T09:12:01;99700.25;;;5.65;49.58
48622;BME280;34421;48.944;9.460;2023-01-29T09:14:26;99696.66;;;5.66;49.31
48622;BME280;34421;48.944;9.460;2023-01-29T09:16:52;99700.66;;;5.70;50.20
48622;BME280;34421;48.944;9.460;2023-01-29T09:19:17;99696.59;;;5.76;48.83
48622;BME280;34421;48.944;9.460;2023-01-29T09:21:42;99698.50;;;5.83;47.85
48622;BME280;34421;48.944;9.460;2023-01-29T09:24:07;99700.97;;;5.85;48.35
48622;BME280;34421;48.944;9.460;2023-01-29T09:26:33;99710.28;;;5.89;47.31
48622;BME280;34421;48.944;9.460;2023-01-29T09:28:58;99712.91;;;5.89;46.64
48622;BME280;34421;48.944;9.460;2023-01-29T09:31:23;99710.94;;;5.91;47.43
48622;BME280;34421;48.944;9.460;2023-01-29T09:33:48;99714.00;;;5.96;47.48
48622;BME280;34421;48.944;9.460;2023-01-29T09:36:13;99705.53;;;5.65;46.01
48622;BME280;34421;48.944;9.460;2023-01-29T09:38:39;99704.53;;;5.48;47.03
48622;BME280;34421;48.944;9.460;2023-01-29T09:43:38;99699.50;;;5.55;47.71
48622;BME280;34421;48.944;9.460;2023-01-29T09:46:05;99692.59;;;5.71;46.34
48622;BME280;34421;48.944;9.460;2023-01-29T09:48:33;99681.78;;;5.83;46.26
48622;BME280;34421;48.944;9.460;2023-01-29T09:50:59;99674.34;;;5.96;46.22
48622;BME280;34421;48.944;9.460;2023-01-29T09:53:33;99674.88;;;6.00;46.60
48622;BME280;34421;48.944;9.460;2023-01-29T09:56:02;99667.00;;;6.26;46.44
48622;BME280;34421;48.944;9.460;2023-01-29T09:58:35;99659.13;;;6.86;46.01
48622;BME280;34421;48.944;9.460;2023-01-29T10:13:49;99645.00;;;8.77;41.08
48622;BME280;34421;48.944;9.460;2023-01-29T10:19:01;99649.88;;;8.16;41.50
48622;BME280;34421;48.944;9.460;2023-01-29T10:26:32;99655.19;;;8.16;41.53
48622;BME280;34421;48.944;9.460;2023-01-29T10:28:59;99656.03;;;8.41;41.37
48622;BME280;34421;48.944;9.460;2023-01-29T10:33:56;99655.00;;;8.58;40.94
48622;BME280;34421;48.944;9.460;2023-01-29T10:36:27;99650.22;;;8.54;41.01
48622;BME280;34421;48.944;9.460;2023-01-29T10:38:56;99647.53;;;8.29;41.12
48622;BME280;34421;48.944;9.460;2023-01-29T10:51:55;99644.91;;;8.05;41.15
48622;BME280;34421;48.944;9.460;2023-01-29T10:56:55;99645.88;;;10.02;39.47
48622;BME280;34421;48.944;9.460;2023-01-29T11:02:09;99646.22;;;9.99;39.26
48622;BME280;34421;48.944;9.460;2023-01-29T11:04:37;99639.84;;;9.62;39.40
48622;BME280;34421;48.944;9.460;2023-01-29T11:07:03;99646.28;;;9.36;38.58
48622;BME280;34421;48.944;9.460;2023-01-29T11:09:30;99648.44;;;9.41;39.41
48622;BME280;34421;48.944;9.460;2023-01-29T11:11:59;99646.97;;;9.30;39.32
48622;BME280;34421;48.944;9.460;2023-01-29T11:14:42;99645.06;;;9.16;39.16
48622;BME280;34421;48.944;9.460;2023-01-29T11:17:16;99633.22;;;9.58;38.53
48622;BME280;34421;48.944;9.460;2023-01-29T11:19:43;99621.31;;;10.00;38.00
48622;BME280;34421;48.944;9.460;2023-01-29T11:22:21;99619.47;;;10.00;37.67
48622;BME280;34421;48.944;9.460;2023-01-29T11:25:09;99607.03;;;10.16;37.96
48622;BME280;34421;48.944;9.460;2023-01-29T11:27:34;99612.16;;;10.02;37.47
48622;BME280;34421;48.944;9.460;2023-01-29T11:30:03;99603.25;;;10.10;38.25
48622;BME280;34421;48.944;9.460;2023-01-29T11:32:31;99596.53;;;9.76;38.32
48622;BME280;34421;48.944;9.460;2023-01-29T11:34:58;99597.50;;;9.29;37.87
48622;BME280;34421;48.944;9.460;2023-01-29T11:37:30;99598.88;;;9.17;38.56
48622;BME280;34421;48.944;9.460;2023-01-29T11:39:56;99601.09;;;9.05;39.42
48622;BME280;34421;48.944;9.460;2023-01-29T11:42:21;99601.41;;;9.10;38.76
48622;BME280;34421;48.944;9.460;2023-01-29T11:44:47;99599.09;;;9.07;39.26
48622;BME280;34421;48.944;9.460;2023-01-29T11:49:50;99591.84;;;8.93;39.69
48622;BME280;34421;48.944;9.460;2023-01-29T11:52:17;99589.41;;;8.83;39.30
48622;BME280;34421;48.944;9.460;2023-01-29T11:54:54;99588.41;;;8.84;39.96
48622;BME280;34421;48.944;9.460;2023-01-29T11:57:31;99578.63;;;8.77;40.34
48622;BME280;34421;48.944;9.460;2023-01-29T11:59:59;99568.56;;;8.56;40.50
48622;BME280;34421;48.944;9.460;2023-01-29T12:02:34;99565.63;;;8.42;40.85
48622;BME280;34421;48.944;9.460;2023-01-29T12:05:02;99554.03;;;8.11;40.02
48622;BME280;34421;48.944;9.460;2023-01-29T12:07:28;99559.03;;;7.97;40.87
48622;BME280;34421;48.944;9.460;2023-01-29T12:09:56;99550.22;;;8.13;41.06
48622;BME280;34421;48.944;9.460;2023-01-29T12:12:32;99544.75;;;8.15;40.56
48622;BME280;34421;48.944;9.460;2023-01-29T12:15:18;99534.13;;;8.31;40.46
48622;BME280;34421;48.944;9.460;2023-01-29T12:17:56;99536.28;;;8.36;40.39
48622;BME280;34421;48.944;9.460;2023-01-29T12:20:33;99530.50;;;8.16;40.64
48622;BME280;34421;48.944;9.460;2023-01-29T12:25:46;99530.16;;;8.19;40.44
48622;BME280;34421;48.944;9.460;2023-01-29T12:35:56;99502.69;;;8.04;41.28
48622;BME280;34421;48.944;9.460;2023-01-29T12:38:25;99494.88;;;8.02;40.99
48622;BME280;34421;48.944;9.460;2023-01-29T12:43:42;99489.84;;;8.40;40.46
48622;BME280;34421;48.944;9.460;2023-01-29T12:46:11;99482.47;;;8.58;40.45
48622;BME280;34421;48.944;9.460;2023-01-29T12:48:40;99480.25;;;8.70;39.97
48622;BME280;34421;48.944;9.460;2023-01-29T12:51:07;99471.44;;;8.78;40.54
48622;BME280;34421;48.944;9.460;2023-01-29T12:53:36;99466.13;;;8.78;40.10
48622;BME280;34421;48.944;9.460;2023-01-29T12:56:10;99470.72;;;8.44;40.11
48622;BME280;34421;48.944;9.460;2023-01-29T12:58:40;99466.41;;;8.35;40.92
48622;BME280;34421;48.944;9.460;2023-01-29T13:01:23;99472.34;;;8.06;41.13
48622;BME280;34421;48.944;9.460;2023-01-29T13:03:52;99469.50;;;7.99;41.58
48622;BME280;34421;48.944;9.460;2023-01-29T13:06:27;99457.47;;;7.89;41.58
48622;BME280;34421;48.944;9.460;2023-01-29T13:08:59;99458.63;;;7.78;41.78
48622;BME280;34421;48.944;9.460;2023-01-29T13:13:56;99451.34;;;7.64;41.95
48622;BME280;34421;48.944;9.460;2023-01-29T13:16:24;99457.00;;;7.36;42.47
48622;BME280;34421;48.944;9.460;2023-01-29T13:21:17;99455.19;;;7.20;42.97
48622;BME280;34421;48.944;9.460;2023-01-29T13:23:44;99449.22;;;7.26;43.27
48622;BME280;34421;48.944;9.460;2023-01-29T13:26:11;99449.88;;;7.45;43.33
48622;BME280;34421;48.944;9.460;2023-01-29T13:28:37;99458.16;;;7.50;43.38
48622;BME280;34421;48.944;9.460;2023-01-29T13:33:33;99445.03;;;7.73;42.92
48622;BME280;34421;48.944;9.460;2023-01-29T13:35:58;99443.06;;;7.67;43.05
48622;BME280;34421;48.944;9.460;2023-01-29T13:38:25;99467.25;;;7.64;43.03
48622;BME280;34421;48.944;9.460;2023-01-29T13:40:52;99452.69;;;7.68;42.86
48622;BME280;34421;48.944;9.460;2023-01-29T13:43:20;99463.97;;;7.62;43.11
48622;BME280;34421;48.944;9.460;2023-01-29T13:45:47;99458.16;;;7.50;42.85
48622;BME280;34421;48.944;9.460;2023-01-29T13:48:22;99455.34;;;7.35;43.28
48622;BME280;34421;48.944;9.460;2023-01-29T13:50:49;99455.97;;;7.13;43.82
48622;BME280;34421;48.944;9.460;2023-01-29T13:53:20;99456.31;;;7.10;43.76
48622;BME280;34421;48.944;9.460;2023-01-29T13:55:46;99450.03;;;7.02;44.21
48622;BME280;34421;48.944;9.460;2023-01-29T13:58:16;99442.22;;;7.01;44.72
48622;BME280;34421;48.944;9.460;2023-01-29T14:08:38;99452.34;;;7.22;43.97
48622;BME280;34421;48.944;9.460;2023-01-29T14:13:39;99448.53;;;7.00;43.64
48622;BME280;34421;48.944;9.460;2023-01-29T14:18:34;99442.34;;;6.67;44.34
48622;BME280;34421;48.944;9.460;2023-01-29T14:21:33;99433.41;;;6.68;44.86
48622;BME280;34421;48.944;9.460;2023-01-29T14:28:51;99426.72;;;6.47;44.93
48622;BME280;34421;48.944;9.460;2023-01-29T14:34:02;99418.06;;;6.29;45.16
48622;BME280;34421;48.944;9.460;2023-01-29T14:36:28;99421.00;;;6.18;45.82
48622;BME280;34421;48.944;9.460;2023-01-29T14:39:01;99424.91;;;6.05;46.48
48622;BME280;34421;48.944;9.460;2023-01-29T14:41:31;99419.25;;;6.00;47.15
48622;BME280;34421;48.944;9.460;2023-01-29T14:46:41;99402.97;;;6.13;46.76
48622;BME280;34421;48.944;9.460;2023-01-29T14:49:07;99407.25;;;6.14;47.03
48622;BME280;34421;48.944;9.460;2023-01-29T14:51:33;99405.13;;;6.18;46.04
48622;BME280;34421;48.944;9.460;2023-01-29T14:54:01;99423.00;;;6.24;46.15
48622;BME280;34421;48.944;9.460;2023-01-29T14:56:32;99429.13;;;6.24;45.81
48622;BME280;34421;48.944;9.460;2023-01-29T15:01:32;99423.41;;;6.03;46.54
48622;BME280;34421;48.944;9.460;2023-01-29T15:04:01;99426.00;;;5.94;46.63
48622;BME280;34421;48.944;9.460;2023-01-29T15:06:37;99429.31;;;5.97;47.56
48622;BME280;34421;48.944;9.460;2023-01-29T15:09:51;99427.75;;;6.12;46.85
48622;BME280;34421;48.944;9.460;2023-01-29T15:14:28;99418.72;;;6.23;46.89
48622;BME280;34421;48.944;9.460;2023-01-29T15:19:34;99425.84;;;6.30;46.64
48622;BME280;34421;48.944;9.460;2023-01-29T15:24:37;99421.06;;;6.34;46.48
48622;BME280;34421;48.944;9.460;2023-01-29T15:27:03;99421.31;;;6.14;46.54
48622;BME280;34421;48.944;9.460;2023-01-29T15:29:29;99419.56;;;5.97;46.96
48622;BME280;34421;48.944;9.460;2023-01-29T15:31:55;99419.28;;;5.74;47.27
48622;BME280;34421;48.944;9.460;2023-01-29T15:34:21;99423.31;;;5.60;48.13
48622;BME280;34421;48.944;9.460;2023-01-29T15:36:47;99428.91;;;5.57;48.47
48622;BME280;34421;48.944;9.460;2023-01-29T15:41:41;99425.22;;;5.32;47.80
48622;BME280;34421;48.944;9.460;2023-01-29T15:44:10;99426.75;;;5.17;47.81
48622;BME280;34421;48.944;9.460;2023-01-29T15:46:37;99423.16;;;5.00;49.32
48622;BME280;34421;48.944;9.460;2023-01-29T15:49:08;99417.13;;;4.90;50.22
48622;BME280;34421;48.944;9.460;2023-01-29T15:51:35;99416.22;;;4.81;50.89
48622;BME280;34421;48.944;9.460;2023-01-29T15:54:04;99413.66;;;4.71;50.22